EZY18DB EGPH-LFPG
Flight info
| Callsign | EZY18DB |
|---|---|
| Flight time | 1h 22m |
| Altitude | 33000 |
| Route | GOSAM P600 FENIK L612 ELBUS DCT NAVSO DCT AKOMU DCT VAMEB UL612 EMKUK DCT SFD UM605 BIBAX |
| Aircraft | A320/M-SDE2E3FGHIJ1RWXYZ/LB1 |
Departure
| Time | 2026-04-26 11:51 |
|---|---|
| Airport | Edinburgh Airport (EGPH) |
Arrival
| Time | 2026-04-26 13:14 |
|---|---|
| Airport | Charles de Gaulle International Airport (LFPG) |
| Time | Latitude | Longitude | Altitude | Speed | Heading |
|---|---|---|---|---|---|
| 2026-04-26 11:26 | 55.94967 | -3.36288 | 108 ft | 0 kts | 149° |
| 2026-04-26 11:43 | 55.94974 | -3.36295 | 107 ft | 4 kts | 147° |
| 2026-04-26 11:43 | 55.94995 | -3.36323 | 105 ft | 4 kts | 137° |
| 2026-04-26 11:43 | 55.95013 | -3.36358 | 104 ft | 4 kts | 121° |
| 2026-04-26 11:43 | 55.95016 | -3.36368 | 105 ft | 0 kts | 118° |
| 2026-04-26 11:44 | 55.95018 | -3.36372 | 107 ft | 1 kts | 102° |
| 2026-04-26 11:44 | 55.95015 | -3.36397 | 105 ft | 3 kts | 45° |
| 2026-04-26 11:44 | 55.95005 | -3.36419 | 105 ft | 0 kts | 57° |
| 2026-04-26 11:46 | 55.95037 | -3.36388 | 106 ft | 13 kts | 6° |
| 2026-04-26 11:46 | 55.95125 | -3.36307 | 104 ft | 21 kts | 59° |
| 2026-04-26 11:46 | 55.95215 | -3.36040 | 101 ft | 27 kts | 59° |
| 2026-04-26 11:47 | 55.95309 | -3.35759 | 101 ft | 25 kts | 59° |
| 2026-04-26 11:47 | 55.95389 | -3.35523 | 105 ft | 20 kts | 57° |
| 2026-04-26 11:47 | 55.95471 | -3.35409 | 103 ft | 16 kts | 346° |
| 2026-04-26 11:47 | 55.95497 | -3.35436 | 102 ft | 0 kts | 326° |
| 2026-04-26 11:49 | 55.95520 | -3.35465 | 101 ft | 13 kts | 327° |
| 2026-04-26 11:50 | 55.95553 | -3.35618 | 101 ft | 13 kts | 239° |
| 2026-04-26 11:50 | 55.95550 | -3.35627 | 101 ft | 0 kts | 238° |
| 2026-04-26 11:51 | 55.95490 | -3.35802 | 102 ft | 52 kts | 239° |
| 2026-04-26 11:51 | 55.95173 | -3.36731 | 109 ft | 119 kts | 239° |
| 2026-04-26 11:51 | 55.94653 | -3.38266 | 214 ft | 159 kts | 238° |
| 2026-04-26 11:51 | 55.94070 | -3.39969 | 821 ft | 163 kts | 239° |
| 2026-04-26 11:52 | 55.93463 | -3.41741 | 1323 ft | 177 kts | 238° |
| 2026-04-26 11:52 | 55.92774 | -3.43726 | 1625 ft | 200 kts | 238° |
| 2026-04-26 11:52 | 55.91996 | -3.45969 | 1958 ft | 225 kts | 238° |
| 2026-04-26 11:52 | 55.91132 | -3.48462 | 2422 ft | 246 kts | 238° |
| 2026-04-26 11:53 | 55.90410 | -3.51250 | 3261 ft | 252 kts | 256° |
| 2026-04-26 11:53 | 55.90087 | -3.54330 | 4216 ft | 253 kts | 259° |
| 2026-04-26 11:53 | 55.89781 | -3.57435 | 5130 ft | 256 kts | 259° |
| 2026-04-26 11:54 | 55.89163 | -3.63741 | 6876 ft | 261 kts | 259° |
| 2026-04-26 11:54 | 55.88844 | -3.66939 | 7711 ft | 263 kts | 259° |
| 2026-04-26 11:54 | 55.88519 | -3.70160 | 8566 ft | 265 kts | 258° |
| 2026-04-26 11:54 | 55.88192 | -3.73390 | 9429 ft | 266 kts | 258° |
| 2026-04-26 11:55 | 55.87863 | -3.76647 | 10271 ft | 268 kts | 257° |
| 2026-04-26 11:55 | 55.87524 | -3.79985 | 10706 ft | 285 kts | 258° |
| 2026-04-26 11:55 | 55.87162 | -3.83590 | 10961 ft | 305 kts | 258° |
| 2026-04-26 11:55 | 55.86788 | -3.87363 | 11532 ft | 313 kts | 258° |
| 2026-04-26 11:56 | 55.86409 | -3.91210 | 12221 ft | 317 kts | 258° |
| 2026-04-26 11:56 | 55.86023 | -3.95100 | 12926 ft | 322 kts | 258° |
| 2026-04-26 11:56 | 55.85627 | -3.99050 | 13625 ft | 326 kts | 258° |
| 2026-04-26 11:56 | 55.85225 | -4.03053 | 14286 ft | 330 kts | 259° |
| 2026-04-26 11:57 | 55.84817 | -4.07094 | 14900 ft | 334 kts | 259° |
| 2026-04-26 11:57 | 55.84206 | -4.11084 | 15523 ft | 336 kts | 245° |
| 2026-04-26 11:57 | 55.82953 | -4.14585 | 16142 ft | 339 kts | 229° |
| 2026-04-26 11:57 | 55.81142 | -4.17287 | 16763 ft | 343 kts | 216° |
| 2026-04-26 11:58 | 55.79165 | -4.19680 | 17395 ft | 345 kts | 216° |
| 2026-04-26 11:58 | 55.77177 | -4.22107 | 18023 ft | 348 kts | 216° |
| 2026-04-26 11:58 | 55.75118 | -4.24401 | 18620 ft | 352 kts | 208° |
| 2026-04-26 11:58 | 55.72787 | -4.25824 | 19141 ft | 359 kts | 194° |
| 2026-04-26 11:59 | 55.70272 | -4.26129 | 19641 ft | 367 kts | 179° |
| 2026-04-26 11:59 | 55.67741 | -4.25215 | 20142 ft | 377 kts | 163° |
| 2026-04-26 11:59 | 55.65343 | -4.23245 | 20653 ft | 383 kts | 156° |
| 2026-04-26 11:59 | 55.62982 | -4.21011 | 21171 ft | 387 kts | 154° |
| 2026-04-26 12:00 | 55.60625 | -4.18670 | 21691 ft | 390 kts | 154° |
| 2026-04-26 12:00 | 55.58259 | -4.16285 | 22186 ft | 393 kts | 154° |
| 2026-04-26 12:00 | 55.55870 | -4.13887 | 22693 ft | 396 kts | 154° |
| 2026-04-26 12:00 | 55.53460 | -4.11493 | 23192 ft | 399 kts | 154° |
| 2026-04-26 12:01 | 55.51020 | -4.09099 | 23680 ft | 402 kts | 155° |
| 2026-04-26 12:01 | 55.48564 | -4.06712 | 24113 ft | 405 kts | 155° |
| 2026-04-26 12:01 | 55.46088 | -4.04314 | 24514 ft | 407 kts | 155° |
| 2026-04-26 12:01 | 55.43599 | -4.01904 | 24894 ft | 410 kts | 155° |
| 2026-04-26 12:02 | 55.41093 | -3.99478 | 25281 ft | 412 kts | 155° |
| 2026-04-26 12:02 | 55.39427 | -3.97867 | 25544 ft | 413 kts | 155° |
| 2026-04-26 12:02 | 55.36044 | -3.94594 | 26048 ft | 416 kts | 155° |
| 2026-04-26 12:02 | 55.33501 | -3.92136 | 26400 ft | 418 kts | 155° |
| 2026-04-26 12:03 | 55.30943 | -3.89668 | 26755 ft | 421 kts | 155° |
| 2026-04-26 12:03 | 55.28367 | -3.87191 | 27107 ft | 423 kts | 155° |
| 2026-04-26 12:03 | 55.25781 | -3.84710 | 27436 ft | 425 kts | 155° |
| 2026-04-26 12:03 | 55.23177 | -3.82213 | 27744 ft | 428 kts | 156° |
| 2026-04-26 12:04 | 55.20542 | -3.79738 | 28062 ft | 430 kts | 157° |
| 2026-04-26 12:04 | 55.17870 | -3.77363 | 28378 ft | 432 kts | 158° |
| 2026-04-26 12:04 | 55.15165 | -3.75058 | 28698 ft | 433 kts | 159° |
| 2026-04-26 12:04 | 55.12441 | -3.72781 | 29020 ft | 435 kts | 159° |
| 2026-04-26 12:05 | 55.09704 | -3.70494 | 29335 ft | 437 kts | 159° |
| 2026-04-26 12:05 | 55.06957 | -3.68181 | 29644 ft | 439 kts | 159° |
| 2026-04-26 12:05 | 55.04199 | -3.65841 | 29947 ft | 442 kts | 159° |
| 2026-04-26 12:05 | 55.01435 | -3.63483 | 30239 ft | 444 kts | 159° |
| 2026-04-26 12:06 | 54.98657 | -3.61109 | 30501 ft | 445 kts | 159° |
| 2026-04-26 12:06 | 54.95872 | -3.58729 | 30733 ft | 447 kts | 159° |
| 2026-04-26 12:06 | 54.93072 | -3.56343 | 30931 ft | 449 kts | 159° |
| 2026-04-26 12:06 | 54.90261 | -3.53952 | 31148 ft | 451 kts | 159° |
| 2026-04-26 12:07 | 54.87436 | -3.51556 | 31360 ft | 453 kts | 159° |
| 2026-04-26 12:07 | 54.84607 | -3.49160 | 31639 ft | 452 kts | 159° |
| 2026-04-26 12:07 | 54.81778 | -3.46768 | 31953 ft | 451 kts | 159° |
| 2026-04-26 12:07 | 54.78955 | -3.44388 | 32254 ft | 451 kts | 160° |
| 2026-04-26 12:08 | 54.76138 | -3.42014 | 32561 ft | 450 kts | 160° |
| 2026-04-26 12:08 | 54.73323 | -3.39648 | 32866 ft | 450 kts | 160° |
| 2026-04-26 12:08 | 54.70510 | -3.37289 | 33165 ft | 449 kts | 160° |
| 2026-04-26 12:08 | 54.67698 | -3.34930 | 33277 ft | 447 kts | 160° |
| 2026-04-26 12:09 | 54.64933 | -3.32608 | 33297 ft | 439 kts | 160° |
| 2026-04-26 12:09 | 54.59476 | -3.28049 | 33298 ft | 434 kts | 160° |
| 2026-04-26 12:10 | 54.54039 | -3.23542 | 33298 ft | 433 kts | 161° |
| 2026-04-26 12:10 | 54.48591 | -3.19041 | 33303 ft | 436 kts | 160° |
| 2026-04-26 12:11 | 54.43124 | -3.14519 | 33284 ft | 437 kts | 160° |
| 2026-04-26 12:11 | 54.37646 | -3.09995 | 33284 ft | 437 kts | 160° |
| 2026-04-26 12:12 | 54.32164 | -3.05471 | 33283 ft | 437 kts | 160° |
| 2026-04-26 12:12 | 54.26680 | -3.00964 | 33291 ft | 437 kts | 160° |
| 2026-04-26 12:13 | 54.21190 | -2.96472 | 33296 ft | 438 kts | 160° |
| 2026-04-26 12:13 | 54.15691 | -2.92014 | 33277 ft | 437 kts | 161° |
| 2026-04-26 12:14 | 54.10122 | -2.87881 | 33285 ft | 436 kts | 163° |
| 2026-04-26 12:14 | 54.04524 | -2.83922 | 33286 ft | 436 kts | 163° |
| 2026-04-26 12:15 | 53.98923 | -2.79926 | 33289 ft | 436 kts | 162° |
| 2026-04-26 12:15 | 53.93334 | -2.75880 | 33277 ft | 436 kts | 162° |
| 2026-04-26 12:16 | 53.88697 | -2.72517 | 33285 ft | 436 kts | 162° |
| 2026-04-26 12:16 | 53.83112 | -2.68483 | 33294 ft | 436 kts | 162° |
| 2026-04-26 12:17 | 53.77533 | -2.64479 | 33296 ft | 436 kts | 162° |
| 2026-04-26 12:17 | 53.71953 | -2.60485 | 33299 ft | 435 kts | 162° |
| 2026-04-26 12:18 | 53.66332 | -2.56474 | 33276 ft | 436 kts | 162° |
| 2026-04-26 12:18 | 53.60780 | -2.52528 | 33284 ft | 436 kts | 162° |
| 2026-04-26 12:19 | 53.55185 | -2.48557 | 33283 ft | 436 kts | 162° |
| 2026-04-26 12:19 | 53.49588 | -2.44599 | 33290 ft | 436 kts | 162° |
| 2026-04-26 12:20 | 53.43954 | -2.40611 | 33294 ft | 436 kts | 162° |
| 2026-04-26 12:20 | 53.38394 | -2.36686 | 33315 ft | 436 kts | 162° |
| 2026-04-26 12:21 | 53.32756 | -2.32727 | 33316 ft | 436 kts | 162° |
| 2026-04-26 12:21 | 53.27154 | -2.28823 | 33319 ft | 436 kts | 162° |
| 2026-04-26 12:22 | 53.21586 | -2.24950 | 33307 ft | 436 kts | 162° |
| 2026-04-26 12:22 | 53.15987 | -2.21046 | 33303 ft | 436 kts | 162° |
| 2026-04-26 12:23 | 53.10344 | -2.17135 | 33312 ft | 436 kts | 162° |
| 2026-04-26 12:23 | 53.04742 | -2.13266 | 33317 ft | 436 kts | 162° |
| 2026-04-26 12:24 | 52.99139 | -2.09402 | 33312 ft | 436 kts | 162° |
| 2026-04-26 12:24 | 52.93542 | -2.05552 | 33305 ft | 435 kts | 162° |
| 2026-04-26 12:25 | 52.85122 | -1.99782 | 33309 ft | 435 kts | 162° |
| 2026-04-26 12:25 | 52.79546 | -1.95977 | 33299 ft | 436 kts | 162° |
| 2026-04-26 12:26 | 52.73939 | -1.92171 | 33281 ft | 436 kts | 161° |
| 2026-04-26 12:26 | 52.68331 | -1.88372 | 33302 ft | 436 kts | 161° |
| 2026-04-26 12:27 | 52.62765 | -1.84590 | 33312 ft | 435 kts | 161° |
| 2026-04-26 12:27 | 52.57129 | -1.80774 | 33320 ft | 435 kts | 161° |
| 2026-04-26 12:28 | 52.51531 | -1.76995 | 33324 ft | 435 kts | 161° |
| 2026-04-26 12:28 | 52.45975 | -1.73250 | 33322 ft | 434 kts | 161° |
| 2026-04-26 12:29 | 52.40393 | -1.69516 | 33330 ft | 434 kts | 161° |
| 2026-04-26 12:30 | 52.32063 | -1.63695 | 33328 ft | 435 kts | 158° |
| 2026-04-26 12:30 | 52.26670 | -1.59194 | 33329 ft | 436 kts | 155° |
| 2026-04-26 12:31 | 52.18631 | -1.52350 | 33362 ft | 433 kts | 156° |
| 2026-04-26 12:31 | 52.13249 | -1.47967 | 33364 ft | 432 kts | 157° |
| 2026-04-26 12:32 | 52.07853 | -1.43627 | 33349 ft | 432 kts | 158° |
| 2026-04-26 12:33 | 51.99769 | -1.37098 | 33288 ft | 433 kts | 157° |
| 2026-04-26 12:33 | 51.94719 | -1.31691 | 33289 ft | 438 kts | 146° |
| 2026-04-26 12:34 | 51.89904 | -1.25625 | 33291 ft | 438 kts | 146° |
| 2026-04-26 12:34 | 51.85008 | -1.19513 | 33303 ft | 452 kts | 146° |
| 2026-04-26 12:35 | 51.79957 | -1.13241 | 33288 ft | 465 kts | 146° |
| 2026-04-26 12:35 | 51.74735 | -1.06759 | 33303 ft | 474 kts | 146° |
| 2026-04-26 12:36 | 51.69474 | -1.00239 | 33302 ft | 479 kts | 146° |
| 2026-04-26 12:36 | 51.64181 | -0.93699 | 33313 ft | 481 kts | 146° |
| 2026-04-26 12:37 | 51.58859 | -0.87142 | 33315 ft | 483 kts | 146° |
| 2026-04-26 12:37 | 51.53519 | -0.80596 | 33312 ft | 483 kts | 146° |
| 2026-04-26 12:38 | 51.48171 | -0.74072 | 33317 ft | 483 kts | 146° |
| 2026-04-26 12:38 | 51.42819 | -0.67550 | 33322 ft | 483 kts | 146° |
| 2026-04-26 12:39 | 51.37461 | -0.61036 | 33326 ft | 483 kts | 146° |
| 2026-04-26 12:39 | 51.32104 | -0.54542 | 33311 ft | 483 kts | 146° |
| 2026-04-26 12:40 | 51.26740 | -0.48066 | 33316 ft | 483 kts | 146° |
| 2026-04-26 12:40 | 51.21370 | -0.41597 | 33322 ft | 484 kts | 146° |
| 2026-04-26 12:41 | 51.15994 | -0.35144 | 33332 ft | 484 kts | 146° |
| 2026-04-26 12:41 | 51.10613 | -0.28707 | 33334 ft | 484 kts | 146° |
| 2026-04-26 12:42 | 51.05231 | -0.22286 | 33333 ft | 484 kts | 146° |
| 2026-04-26 12:42 | 50.99852 | -0.15868 | 33331 ft | 484 kts | 146° |
| 2026-04-26 12:43 | 50.94463 | -0.09471 | 33330 ft | 484 kts | 146° |
| 2026-04-26 12:43 | 50.89067 | -0.03106 | 33329 ft | 483 kts | 146° |
| 2026-04-26 12:44 | 50.83672 | 0.03252 | 33307 ft | 484 kts | 146° |
| 2026-04-26 12:44 | 50.78262 | 0.09614 | 33313 ft | 485 kts | 146° |
| 2026-04-26 12:45 | 50.72885 | 0.16052 | 33313 ft | 486 kts | 144° |
| 2026-04-26 12:45 | 50.67644 | 0.22811 | 33312 ft | 487 kts | 143° |
| 2026-04-26 12:46 | 50.62438 | 0.29641 | 33300 ft | 487 kts | 143° |
| 2026-04-26 12:46 | 50.57195 | 0.36382 | 33307 ft | 487 kts | 144° |
| 2026-04-26 12:47 | 50.51917 | 0.43050 | 33316 ft | 487 kts | 144° |
| 2026-04-26 12:47 | 50.46626 | 0.49701 | 33317 ft | 487 kts | 144° |
| 2026-04-26 12:48 | 50.41337 | 0.56376 | 33292 ft | 488 kts | 144° |
| 2026-04-26 12:48 | 50.38728 | 0.59676 | 33157 ft | 473 kts | 144° |
| 2026-04-26 12:48 | 50.36206 | 0.62866 | 32384 ft | 460 kts | 144° |
| 2026-04-26 12:48 | 50.33738 | 0.65978 | 31527 ft | 451 kts | 144° |
| 2026-04-26 12:49 | 50.31315 | 0.69018 | 30670 ft | 443 kts | 144° |
| 2026-04-26 12:49 | 50.28929 | 0.71998 | 29750 ft | 436 kts | 144° |
| 2026-04-26 12:49 | 50.26579 | 0.74929 | 28819 ft | 429 kts | 144° |
| 2026-04-26 12:49 | 50.24270 | 0.77807 | 28091 ft | 418 kts | 144° |
| 2026-04-26 12:50 | 50.22046 | 0.80580 | 27725 ft | 400 kts | 144° |
| 2026-04-26 12:50 | 50.19914 | 0.83245 | 27304 ft | 386 kts | 144° |
| 2026-04-26 12:50 | 50.17858 | 0.85814 | 26885 ft | 372 kts | 144° |
| 2026-04-26 12:50 | 50.15873 | 0.88290 | 26484 ft | 359 kts | 144° |
| 2026-04-26 12:51 | 50.13934 | 0.90701 | 26087 ft | 357 kts | 144° |
| 2026-04-26 12:51 | 50.11994 | 0.93100 | 25678 ft | 356 kts | 144° |
| 2026-04-26 12:51 | 50.10058 | 0.95486 | 25265 ft | 354 kts | 144° |
| 2026-04-26 12:51 | 50.08134 | 0.97858 | 24835 ft | 352 kts | 144° |
| 2026-04-26 12:52 | 50.06210 | 1.00177 | 24406 ft | 348 kts | 148° |
| 2026-04-26 12:52 | 50.04851 | 1.01479 | 24147 ft | 349 kts | 155° |
| 2026-04-26 12:52 | 50.02619 | 1.03178 | 23787 ft | 362 kts | 156° |
| 2026-04-26 12:52 | 50.00343 | 1.04887 | 23387 ft | 364 kts | 156° |
| 2026-04-26 12:53 | 49.98062 | 1.06601 | 23020 ft | 364 kts | 156° |
| 2026-04-26 12:53 | 49.95790 | 1.08312 | 22630 ft | 362 kts | 156° |
| 2026-04-26 12:53 | 49.92772 | 1.10582 | 22159 ft | 359 kts | 156° |
| 2026-04-26 12:53 | 49.90534 | 1.12261 | 21798 ft | 356 kts | 156° |
| 2026-04-26 12:54 | 49.88307 | 1.13927 | 21436 ft | 354 kts | 156° |
| 2026-04-26 12:54 | 49.86095 | 1.15580 | 21078 ft | 352 kts | 156° |
| 2026-04-26 12:54 | 49.83901 | 1.17219 | 20718 ft | 349 kts | 157° |
| 2026-04-26 12:54 | 49.82447 | 1.18305 | 20484 ft | 350 kts | 157° |
| 2026-04-26 12:55 | 49.80264 | 1.19931 | 20132 ft | 347 kts | 157° |
| 2026-04-26 12:55 | 49.78095 | 1.21546 | 19777 ft | 345 kts | 157° |
| 2026-04-26 12:55 | 49.75918 | 1.23171 | 19418 ft | 342 kts | 157° |
| 2026-04-26 12:55 | 49.73778 | 1.24767 | 19080 ft | 340 kts | 156° |
| 2026-04-26 12:56 | 49.71655 | 1.26356 | 18744 ft | 338 kts | 156° |
| 2026-04-26 12:56 | 49.69545 | 1.27930 | 18382 ft | 336 kts | 156° |
| 2026-04-26 12:56 | 49.67450 | 1.29490 | 18024 ft | 333 kts | 156° |
| 2026-04-26 12:56 | 49.65369 | 1.31040 | 17688 ft | 331 kts | 156° |
| 2026-04-26 12:57 | 49.63300 | 1.32578 | 17351 ft | 329 kts | 156° |
| 2026-04-26 12:57 | 49.61242 | 1.34104 | 17021 ft | 327 kts | 156° |
| 2026-04-26 12:57 | 49.59191 | 1.35623 | 16693 ft | 327 kts | 156° |
| 2026-04-26 12:58 | 49.55097 | 1.38641 | 16035 ft | 325 kts | 156° |
| 2026-04-26 12:58 | 49.53063 | 1.40142 | 15707 ft | 324 kts | 156° |
| 2026-04-26 12:58 | 49.51035 | 1.41638 | 15381 ft | 322 kts | 156° |
| 2026-04-26 12:58 | 49.49021 | 1.43121 | 15056 ft | 320 kts | 155° |
| 2026-04-26 12:59 | 49.47018 | 1.44595 | 14734 ft | 318 kts | 156° |
| 2026-04-26 12:59 | 49.45026 | 1.46057 | 14412 ft | 317 kts | 155° |
| 2026-04-26 12:59 | 49.43043 | 1.47512 | 14091 ft | 315 kts | 155° |
| 2026-04-26 12:59 | 49.41069 | 1.48958 | 13745 ft | 313 kts | 155° |
| 2026-04-26 13:00 | 49.39140 | 1.50372 | 13430 ft | 311 kts | 155° |
| 2026-04-26 13:00 | 49.37170 | 1.51815 | 13104 ft | 309 kts | 155° |
| 2026-04-26 13:00 | 49.35260 | 1.53215 | 12801 ft | 307 kts | 154° |
| 2026-04-26 13:00 | 49.33443 | 1.54917 | 12492 ft | 306 kts | 142° |
| 2026-04-26 13:01 | 49.31912 | 1.57168 | 12184 ft | 305 kts | 129° |
| 2026-04-26 13:01 | 49.30723 | 1.59885 | 11867 ft | 303 kts | 117° |
| 2026-04-26 13:01 | 49.29958 | 1.62835 | 11555 ft | 301 kts | 105° |
| 2026-04-26 13:01 | 49.29609 | 1.65977 | 11236 ft | 299 kts | 93° |
| 2026-04-26 13:02 | 49.29434 | 1.69143 | 10917 ft | 298 kts | 101° |
| 2026-04-26 13:02 | 49.28617 | 1.72011 | 10610 ft | 294 kts | 128° |
| 2026-04-26 13:02 | 49.27162 | 1.74176 | 10274 ft | 292 kts | 140° |
| 2026-04-26 13:02 | 49.25579 | 1.76103 | 9906 ft | 290 kts | 142° |
| 2026-04-26 13:03 | 49.23972 | 1.78020 | 9521 ft | 288 kts | 142° |
| 2026-04-26 13:03 | 49.22410 | 1.79883 | 9133 ft | 287 kts | 142° |
| 2026-04-26 13:03 | 49.20837 | 1.81757 | 8762 ft | 286 kts | 142° |
| 2026-04-26 13:03 | 49.19274 | 1.83613 | 8386 ft | 283 kts | 142° |
| 2026-04-26 13:04 | 49.17705 | 1.85475 | 8019 ft | 281 kts | 142° |
| 2026-04-26 13:04 | 49.16182 | 1.87274 | 7661 ft | 279 kts | 142° |
| 2026-04-26 13:04 | 49.14630 | 1.89101 | 7293 ft | 277 kts | 142° |
| 2026-04-26 13:04 | 49.13131 | 1.90867 | 6947 ft | 275 kts | 142° |
| 2026-04-26 13:05 | 49.11621 | 1.92645 | 6570 ft | 273 kts | 142° |
| 2026-04-26 13:05 | 49.10123 | 1.94395 | 6197 ft | 270 kts | 142° |
| 2026-04-26 13:05 | 49.08626 | 1.96135 | 5919 ft | 259 kts | 142° |
| 2026-04-26 13:05 | 49.07325 | 1.97854 | 5739 ft | 239 kts | 129° |
| 2026-04-26 13:06 | 49.06372 | 1.99827 | 5304 ft | 232 kts | 123° |
| 2026-04-26 13:06 | 49.05478 | 2.01906 | 4796 ft | 231 kts | 122° |
| 2026-04-26 13:06 | 49.04609 | 2.03940 | 4315 ft | 228 kts | 122° |
| 2026-04-26 13:06 | 49.03745 | 2.05953 | 4023 ft | 226 kts | 122° |
| 2026-04-26 13:07 | 49.02874 | 2.07970 | 4013 ft | 228 kts | 122° |
| 2026-04-26 13:07 | 49.01995 | 2.09972 | 4017 ft | 228 kts | 122° |
| 2026-04-26 13:07 | 49.01147 | 2.12000 | 4009 ft | 226 kts | 113° |
| 2026-04-26 13:07 | 49.00659 | 2.14261 | 3989 ft | 225 kts | 103° |
| 2026-04-26 13:08 | 49.00494 | 2.16594 | 3986 ft | 218 kts | 88° |
| 2026-04-26 13:08 | 49.00587 | 2.18751 | 3979 ft | 206 kts | 84° |
| 2026-04-26 13:08 | 49.00711 | 2.20850 | 4012 ft | 193 kts | 84° |
| 2026-04-26 13:08 | 49.00829 | 2.22879 | 3993 ft | 192 kts | 84° |
| 2026-04-26 13:09 | 49.00940 | 2.24829 | 3880 ft | 185 kts | 84° |
| 2026-04-26 13:09 | 49.01051 | 2.26792 | 3683 ft | 182 kts | 84° |
| 2026-04-26 13:09 | 49.01160 | 2.28723 | 3460 ft | 188 kts | 83° |
| 2026-04-26 13:09 | 49.01270 | 2.30682 | 3206 ft | 182 kts | 83° |
| 2026-04-26 13:10 | 49.01374 | 2.32554 | 2959 ft | 176 kts | 84° |
| 2026-04-26 13:10 | 49.01473 | 2.34328 | 2749 ft | 165 kts | 83° |
| 2026-04-26 13:10 | 49.01567 | 2.36020 | 2541 ft | 153 kts | 84° |
| 2026-04-26 13:10 | 49.01652 | 2.37561 | 2330 ft | 143 kts | 83° |
| 2026-04-26 13:11 | 49.01736 | 2.39067 | 2152 ft | 138 kts | 84° |
| 2026-04-26 13:11 | 49.01816 | 2.40503 | 1967 ft | 136 kts | 83° |
| 2026-04-26 13:11 | 49.01896 | 2.41958 | 1762 ft | 135 kts | 84° |
| 2026-04-26 13:11 | 49.01975 | 2.43385 | 1606 ft | 138 kts | 84° |
| 2026-04-26 13:12 | 49.02054 | 2.44826 | 1411 ft | 135 kts | 84° |
| 2026-04-26 13:12 | 49.02129 | 2.46195 | 1241 ft | 137 kts | 85° |
| 2026-04-26 13:12 | 49.02205 | 2.47666 | 1136 ft | 134 kts | 83° |
| 2026-04-26 13:12 | 49.02293 | 2.49077 | 926 ft | 134 kts | 84° |
| 2026-04-26 13:13 | 49.02365 | 2.50486 | 723 ft | 133 kts | 84° |
| 2026-04-26 13:13 | 49.02443 | 2.51888 | 484 ft | 134 kts | 84° |
| 2026-04-26 13:13 | 49.02517 | 2.53277 | 362 ft | 122 kts | 85° |
| 2026-04-26 13:13 | 49.02574 | 2.54297 | 354 ft | 75 kts | 85° |
| 2026-04-26 13:14 | 49.02601 | 2.54877 | 355 ft | 31 kts | 86° |
| 2026-04-26 13:14 | 49.02597 | 2.55119 | 355 ft | 20 kts | 97° |
| 2026-04-26 13:14 | 49.02567 | 2.55286 | 355 ft | 14 kts | 113° |
| 2026-04-26 13:14 | 49.02535 | 2.55397 | 359 ft | 10 kts | 114° |
| 2026-04-26 13:15 | 49.02510 | 2.55478 | 357 ft | 6 kts | 116° |
| 2026-04-26 13:15 | 49.02496 | 2.55520 | 357 ft | 0 kts | 117° |
| 2026-04-26 13:15 | 49.02494 | 2.55525 | 358 ft | 4 kts | 116° |
| 2026-04-26 13:15 | 49.02462 | 2.55594 | 357 ft | 20 kts | 139° |
| 2026-04-26 13:16 | 49.02274 | 2.55629 | 357 ft | 16 kts | 176° |
| 2026-04-26 13:16 | 49.02163 | 2.55643 | 360 ft | 15 kts | 175° |
| 2026-04-26 13:16 | 49.02099 | 2.55673 | 360 ft | 9 kts | 142° |
| 2026-04-26 13:16 | 49.02077 | 2.55756 | 354 ft | 9 kts | 89° |
| 2026-04-26 13:17 | 49.02093 | 2.55992 | 354 ft | 13 kts | 88° |
| 2026-04-26 13:17 | 49.02096 | 2.56142 | 354 ft | 15 kts | 86° |
| 2026-04-26 13:18 | 49.02030 | 2.56367 | 358 ft | 12 kts | 117° |
| 2026-04-26 13:18 | 49.02019 | 2.56498 | 362 ft | 14 kts | 79° |
| 2026-04-26 13:18 | 49.02045 | 2.56817 | 361 ft | 17 kts | 81° |
| 2026-04-26 13:19 | 49.02060 | 2.57006 | 354 ft | 19 kts | 88° |
| 2026-04-26 13:19 | 49.02065 | 2.57212 | 360 ft | 20 kts | 86° |
| 2026-04-26 13:19 | 49.02076 | 2.57425 | 354 ft | 21 kts | 85° |
| 2026-04-26 13:19 | 49.02087 | 2.57649 | 354 ft | 22 kts | 85° |
| 2026-04-26 13:20 | 49.02067 | 2.57885 | 361 ft | 23 kts | 114° |
| 2026-04-26 13:20 | 49.01953 | 2.58068 | 354 ft | 24 kts | 150° |
| 2026-04-26 13:20 | 49.01787 | 2.58126 | 354 ft | 26 kts | 175° |
| 2026-04-26 13:20 | 49.01602 | 2.58152 | 357 ft | 27 kts | 175° |
| 2026-04-26 13:21 | 49.01414 | 2.58173 | 354 ft | 24 kts | 175° |
| 2026-04-26 13:21 | 49.01302 | 2.58189 | 357 ft | 25 kts | 174° |
| 2026-04-26 13:21 | 49.01063 | 2.58222 | 354 ft | 27 kts | 175° |
| 2026-04-26 13:21 | 49.00922 | 2.58180 | 357 ft | 19 kts | 231° |
| 2026-04-26 13:22 | 49.00902 | 2.57997 | 354 ft | 17 kts | 266° |
| 2026-04-26 13:22 | 49.00894 | 2.57828 | 363 ft | 15 kts | 265° |
| 2026-04-26 13:22 | 49.00886 | 2.57673 | 354 ft | 14 kts | 265° |
| 2026-04-26 13:22 | 49.00878 | 2.57531 | 357 ft | 13 kts | 265° |
| 2026-04-26 13:23 | 49.00870 | 2.57398 | 354 ft | 15 kts | 265° |
| 2026-04-26 13:23 | 49.00857 | 2.57159 | 357 ft | 27 kts | 268° |
| 2026-04-26 13:23 | 49.00847 | 2.56965 | 358 ft | 15 kts | 264° |
| 2026-04-26 13:23 | 49.00839 | 2.56809 | 354 ft | 14 kts | 264° |
| 2026-04-26 13:24 | 49.00830 | 2.56666 | 354 ft | 13 kts | 265° |
| 2026-04-26 13:24 | 49.00823 | 2.56538 | 362 ft | 12 kts | 262° |
| 2026-04-26 13:24 | 49.00777 | 2.56458 | 360 ft | 10 kts | 201° |
| 2026-04-26 13:24 | 49.00712 | 2.56453 | 354 ft | 9 kts | 174° |
| 2026-04-26 13:25 | 49.00658 | 2.56438 | 354 ft | 7 kts | 203° |
| 2026-04-26 13:25 | 49.00628 | 2.56385 | 359 ft | 6 kts | 249° |
| 2026-04-26 13:25 | 49.00615 | 2.56331 | 356 ft | 3 kts | 224° |
| 2026-04-26 13:25 | 49.00598 | 2.56312 | 354 ft | 8 kts | 210° |
| 2026-04-26 13:26 | 49.00558 | 2.56293 | 359 ft | 0 kts | 196° |